Airfield :
LOGIN :

Register | Disclaimer

   EN    FR    IT 

 










Legend :    VFR   Marginal VFR   IFR   Intensive IFR   Very Intensive IFR
Visi :
Ceiling :
>= 8 km
>= 3000ft
5 to 8 km
1000 to 3000 ft
1500m to 5 km
500 to 1000 ft
800 to 1500m
200 to 500 ft
< 800m
< 200 ft
Symbols :   Thunderstorms  Fog  Heavy snow  Heavy precipitations  Wind > 20 kt
SIGMETs :     Misc.  Thunderstorms  Icing  Turbulence  Mountain Waves  Volcanic Ashes






- Airport Elevation : 1299 ft


EDTY - Adolf Würth

CURRENT METAR :
  • 041220Z 25007KT 210V290 9999 FEW047 24/12 Q1020

EXPIRED METARs :
  • 041150Z VRB04KT 9999 SCT046 23/12 Q1020
  • 041120Z 23006KT 140V290 9999 FEW046 23/12 Q1021
  • 041050Z 31006KT 210V020 CAVOK 22/12 Q1021
  • 041020Z VRB03KT CAVOK 22/13 Q1020
  • 040950Z 28004KT 240V320 CAVOK 21/12 Q1020
  • 040920Z 31004KT 270V350 CAVOK 21/14 Q1020

TAF TAF EDTY
Valid from the 04 at 12:00 until the 04 at 21:00 UTC


041100Z 0412/0421 30005KT CAVOK



MET'MAP, your aeronautical weather chart ! - Copyright ORBIFLY December 2007 - Disclaimer

ORBIFLY MET'MAP TEAM :

Programming & Development : Alexandra Zaïnal
Original concept : Baudouin d'Aumeries
Technical & hardware support : Manuel Goepfert
Assistance : Marc-Olivier Méhu




SOURCES & CREDITS :

   NOAA